sensor_id;sensor_type;location;lat;lon;timestamp;P1;durP1;ratioP1;P2;durP2;ratioP2
34900;SDS011;21112;51.976;5.660;2023-04-24T00:02:18;1.38;;;1.00;;
34900;SDS011;21112;51.976;5.660;2023-04-24T00:04:44;3.67;;;1.10;;
34900;SDS011;21112;51.976;5.660;2023-04-24T00:07:11;2.00;;;0.90;;
34900;SDS011;21112;51.976;5.660;2023-04-24T00:09:37;2.90;;;1.00;;
34900;SDS011;21112;51.976;5.660;2023-04-24T00:12:04;1.55;;;1.10;;
34900;SDS011;21112;51.976;5.660;2023-04-24T00:14:32;1.90;;;1.00;;
34900;SDS011;21112;51.976;5.660;2023-04-24T00:17:00;1.17;;;1.00;;
34900;SDS011;21112;51.976;5.660;2023-04-24T00:19:26;2.20;;;1.10;;
34900;SDS011;21112;51.976;5.660;2023-04-24T00:21:53;2.47;;;1.30;;
34900;SDS011;21112;51.976;5.660;2023-04-24T00:24:20;4.00;;;1.15;;
34900;SDS011;21112;51.976;5.660;2023-04-24T00:26:47;3.78;;;1.00;;
34900;SDS011;21112;51.976;5.660;2023-04-24T00:29:13;1.88;;;1.23;;
34900;SDS011;21112;51.976;5.660;2023-04-24T00:31:41;2.25;;;1.15;;
34900;SDS011;21112;51.976;5.660;2023-04-24T00:34:08;1.98;;;1.02;;
34900;SDS011;21112;51.976;5.660;2023-04-24T00:36:35;2.55;;;1.25;;
34900;SDS011;21112;51.976;5.660;2023-04-24T00:39:01;1.60;;;1.10;;
34900;SDS011;21112;51.976;5.660;2023-04-24T00:41:28;2.90;;;1.13;;
34900;SDS011;21112;51.976;5.660;2023-04-24T00:43:55;2.10;;;1.00;;
34900;SDS011;21112;51.976;5.660;2023-04-24T00:46:22;1.83;;;1.10;;
34900;SDS011;21112;51.976;5.660;2023-04-24T00:48:50;1.08;;;0.82;;
34900;SDS011;21112;51.976;5.660;2023-04-24T00:51:16;3.20;;;1.15;;
34900;SDS011;21112;51.976;5.660;2023-04-24T00:53:43;2.17;;;1.30;;
34900;SDS011;21112;51.976;5.660;2023-04-24T00:56:09;2.35;;;1.10;;
34900;SDS011;21112;51.976;5.660;2023-04-24T00:58:36;2.22;;;1.13;;
34900;SDS011;21112;51.976;5.660;2023-04-24T01:01:03;2.40;;;1.38;;
34900;SDS011;21112;51.976;5.660;2023-04-24T01:03:32;1.85;;;1.30;;
34900;SDS011;21112;51.976;5.660;2023-04-24T01:06:00;3.30;;;1.40;;
34900;SDS011;21112;51.976;5.660;2023-04-24T01:08:27;1.70;;;1.15;;
34900;SDS011;21112;51.976;5.660;2023-04-24T01:10:54;3.35;;;1.38;;
34900;SDS011;21112;51.976;5.660;2023-04-24T01:13:21;2.28;;;1.20;;
34900;SDS011;21112;51.976;5.660;2023-04-24T01:15:47;1.98;;;1.30;;
34900;SDS011;21112;51.976;5.660;2023-04-24T01:18:14;1.20;;;0.90;;
34900;SDS011;21112;51.976;5.660;2023-04-24T01:20:41;2.17;;;1.00;;
34900;SDS011;21112;51.976;5.660;2023-04-24T01:23:10;2.35;;;1.20;;
34900;SDS011;21112;51.976;5.660;2023-04-24T01:25:37;1.80;;;1.10;;
34900;SDS011;21112;51.976;5.660;2023-04-24T01:28:04;2.88;;;1.27;;
34900;SDS011;21112;51.976;5.660;2023-04-24T01:30:32;1.48;;;0.80;;
34900;SDS011;21112;51.976;5.660;2023-04-24T01:32:59;2.53;;;1.10;;
34900;SDS011;21112;51.976;5.660;2023-04-24T01:35:26;1.80;;;1.20;;
34900;SDS011;21112;51.976;5.660;2023-04-24T01:37:52;2.10;;;1.00;;
34900;SDS011;21112;51.976;5.660;2023-04-24T01:40:20;2.25;;;1.10;;
34900;SDS011;21112;51.976;5.660;2023-04-24T01:42:47;3.20;;;0.93;;
34900;SDS011;21112;51.976;5.660;2023-04-24T01:45:13;1.23;;;0.93;;
34900;SDS011;21112;51.976;5.660;2023-04-24T01:47:40;3.15;;;1.00;;
34900;SDS011;21112;51.976;5.660;2023-04-24T01:50:07;3.50;;;1.00;;
34900;SDS011;21112;51.976;5.660;2023-04-24T01:52:34;2.03;;;1.05;;
34900;SDS011;21112;51.976;5.660;2023-04-24T01:55:01;1.98;;;1.02;;
34900;SDS011;21112;51.976;5.660;2023-04-24T01:57:29;1.77;;;1.00;;
34900;SDS011;21112;51.976;5.660;2023-04-24T02:02:22;1.30;;;0.63;;
34900;SDS011;21112;51.976;5.660;2023-04-24T02:04:49;1.05;;;0.80;;
34900;SDS011;21112;51.976;5.660;2023-04-24T02:07:15;2.72;;;1.00;;
34900;SDS011;21112;51.976;5.660;2023-04-24T02:09:42;1.10;;;0.90;;
34900;SDS011;21112;51.976;5.660;2023-04-24T02:12:08;1.40;;;0.75;;
34900;SDS011;21112;51.976;5.660;2023-04-24T02:14:36;1.15;;;0.73;;
34900;SDS011;21112;51.976;5.660;2023-04-24T02:17:03;1.80;;;0.70;;
34900;SDS011;21112;51.976;5.660;2023-04-24T02:19:30;1.88;;;1.02;;
34900;SDS011;21112;51.976;5.660;2023-04-24T02:21:56;1.45;;;0.90;;
34900;SDS011;21112;51.976;5.660;2023-04-24T02:24:23;1.67;;;1.02;;
34900;SDS011;21112;51.976;5.660;2023-04-24T02:26:49;2.80;;;1.20;;
34900;SDS011;21112;51.976;5.660;2023-04-24T02:29:16;3.20;;;1.33;;
34900;SDS011;21112;51.976;5.660;2023-04-24T02:31:44;3.00;;;1.42;;
34900;SDS011;21112;51.976;5.660;2023-04-24T02:34:10;3.28;;;1.27;;
34900;SDS011;21112;51.976;5.660;2023-04-24T02:36:37;3.50;;;1.40;;
34900;SDS011;21112;51.976;5.660;2023-04-24T02:39:03;2.80;;;1.45;;
34900;SDS011;21112;51.976;5.660;2023-04-24T02:41:30;5.38;;;1.80;;
34900;SDS011;21112;51.976;5.660;2023-04-24T02:43:57;3.42;;;1.50;;
34900;SDS011;21112;51.976;5.660;2023-04-24T02:46:24;3.85;;;1.75;;
34900;SDS011;21112;51.976;5.660;2023-04-24T02:48:52;3.50;;;1.65;;
34900;SDS011;21112;51.976;5.660;2023-04-24T02:51:18;4.30;;;2.00;;
34900;SDS011;21112;51.976;5.660;2023-04-24T02:53:45;4.03;;;1.98;;
34900;SDS011;21112;51.976;5.660;2023-04-24T02:56:11;5.40;;;2.00;;
34900;SDS011;21112;51.976;5.660;2023-04-24T02:58:38;4.85;;;2.33;;
34900;SDS011;21112;51.976;5.660;2023-04-24T03:01:04;4.70;;;2.38;;
34900;SDS011;21112;51.976;5.660;2023-04-24T03:03:31;6.25;;;2.65;;
34900;SDS011;21112;51.976;5.660;2023-04-24T03:05:59;5.07;;;2.58;;
34900;SDS011;21112;51.976;5.660;2023-04-24T03:08:26;4.68;;;2.10;;
34900;SDS011;21112;51.976;5.660;2023-04-24T03:10:53;4.57;;;2.15;;
34900;SDS011;21112;51.976;5.660;2023-04-24T03:13:20;5.93;;;2.22;;
34900;SDS011;21112;51.976;5.660;2023-04-24T03:15:46;6.53;;;2.55;;
34900;SDS011;21112;51.976;5.660;2023-04-24T03:18:12;4.13;;;2.03;;
34900;SDS011;21112;51.976;5.660;2023-04-24T03:20:39;4.53;;;2.20;;
34900;SDS011;21112;51.976;5.660;2023-04-24T03:23:07;5.10;;;2.40;;
34900;SDS011;21112;51.976;5.660;2023-04-24T03:25:33;4.40;;;2.20;;
34900;SDS011;21112;51.976;5.660;2023-04-24T03:28:00;6.18;;;2.40;;
34900;SDS011;21112;51.976;5.660;2023-04-24T03:30:27;6.75;;;2.50;;
34900;SDS011;21112;51.976;5.660;2023-04-24T03:32:53;5.80;;;2.45;;
34900;SDS011;21112;51.976;5.660;2023-04-24T03:35:20;6.53;;;2.92;;
34900;SDS011;21112;51.976;5.660;2023-04-24T03:37:47;6.82;;;2.90;;
34900;SDS011;21112;51.976;5.660;2023-04-24T03:40:15;7.55;;;3.30;;
34900;SDS011;21112;51.976;5.660;2023-04-24T03:42:41;6.53;;;3.08;;
34900;SDS011;21112;51.976;5.660;2023-04-24T03:45:08;6.90;;;2.83;;
34900;SDS011;21112;51.976;5.660;2023-04-24T03:47:35;7.93;;;3.40;;
34900;SDS011;21112;51.976;5.660;2023-04-24T03:50:01;5.32;;;2.95;;
34900;SDS011;21112;51.976;5.660;2023-04-24T03:52:29;6.78;;;3.50;;
34900;SDS011;21112;51.976;5.660;2023-04-24T03:54:56;8.20;;;3.65;;
34900;SDS011;21112;51.976;5.660;2023-04-24T03:57:24;7.68;;;3.15;;
34900;SDS011;21112;51.976;5.660;2023-04-24T03:59:50;8.53;;;3.57;;
34900;SDS011;21112;51.976;5.660;2023-04-24T04:02:18;8.05;;;3.85;;
34900;SDS011;21112;51.976;5.660;2023-04-24T04:04:44;10.45;;;4.13;;
34900;SDS011;21112;51.976;5.660;2023-04-24T04:07:11;8.75;;;4.38;;
34900;SDS011;21112;51.976;5.660;2023-04-24T04:09:38;9.35;;;4.55;;
34900;SDS011;21112;51.976;5.660;2023-04-24T04:12:04;9.43;;;4.57;;
34900;SDS011;21112;51.976;5.660;2023-04-24T04:14:32;11.73;;;5.00;;
34900;SDS011;21112;51.976;5.660;2023-04-24T04:16:58;9.67;;;4.73;;
34900;SDS011;21112;51.976;5.660;2023-04-24T04:19:25;9.57;;;5.38;;
34900;SDS011;21112;51.976;5.660;2023-04-24T04:21:51;11.38;;;5.40;;
34900;SDS011;21112;51.976;5.660;2023-04-24T04:24:21;15.60;;;5.25;;
34900;SDS011;21112;51.976;5.660;2023-04-24T04:26:47;10.77;;;5.07;;
34900;SDS011;21112;51.976;5.660;2023-04-24T04:31:44;10.68;;;5.30;;
34900;SDS011;21112;51.976;5.660;2023-04-24T04:34:10;11.53;;;5.60;;
34900;SDS011;21112;51.976;5.660;2023-04-24T04:36:37;13.50;;;6.03;;
34900;SDS011;21112;51.976;5.660;2023-04-24T04:39:05;11.50;;;5.97;;
34900;SDS011;21112;51.976;5.660;2023-04-24T04:41:31;11.30;;;5.60;;
34900;SDS011;21112;51.976;5.660;2023-04-24T04:44:00;11.63;;;6.00;;
34900;SDS011;21112;51.976;5.660;2023-04-24T04:46:26;13.27;;;6.72;;
34900;SDS011;21112;51.976;5.660;2023-04-24T04:49:00;15.50;;;6.45;;
34900;SDS011;21112;51.976;5.660;2023-04-24T04:51:27;13.23;;;6.28;;
34900;SDS011;21112;51.976;5.660;2023-04-24T04:53:55;13.30;;;6.70;;
34900;SDS011;21112;51.976;5.660;2023-04-24T04:56:21;12.35;;;6.65;;
34900;SDS011;21112;51.976;5.660;2023-04-24T04:58:48;11.60;;;6.63;;
34900;SDS011;21112;51.976;5.660;2023-04-24T05:01:14;13.77;;;6.78;;
34900;SDS011;21112;51.976;5.660;2023-04-24T05:03:41;11.70;;;5.95;;
34900;SDS011;21112;51.976;5.660;2023-04-24T05:06:08;10.82;;;5.85;;
34900;SDS011;21112;51.976;5.660;2023-04-24T05:08:35;12.60;;;5.80;;
34900;SDS011;21112;51.976;5.660;2023-04-24T05:11:01;10.20;;;5.15;;
34900;SDS011;21112;51.976;5.660;2023-04-24T05:13:28;12.25;;;5.55;;
34900;SDS011;21112;51.976;5.660;2023-04-24T05:15:55;11.65;;;5.82;;
34900;SDS011;21112;51.976;5.660;2023-04-24T05:18:21;11.77;;;5.68;;
34900;SDS011;21112;51.976;5.660;2023-04-24T05:20:47;11.73;;;5.55;;
34900;SDS011;21112;51.976;5.660;2023-04-24T05:23:15;10.77;;;5.60;;
34900;SDS011;21112;51.976;5.660;2023-04-24T05:25:42;11.13;;;5.43;;
34900;SDS011;21112;51.976;5.660;2023-04-24T05:28:08;9.88;;;4.78;;
34900;SDS011;21112;51.976;5.660;2023-04-24T05:30:36;9.68;;;4.97;;
34900;SDS011;21112;51.976;5.660;2023-04-24T05:33:03;9.55;;;5.20;;
34900;SDS011;21112;51.976;5.660;2023-04-24T05:35:30;10.60;;;5.43;;
34900;SDS011;21112;51.976;5.660;2023-04-24T05:37:56;10.93;;;5.22;;
34900;SDS011;21112;51.976;5.660;2023-04-24T05:40:24;9.68;;;4.43;;
34900;SDS011;21112;51.976;5.660;2023-04-24T05:42:53;9.27;;;4.50;;
34900;SDS011;21112;51.976;5.660;2023-04-24T05:45:19;9.40;;;4.28;;
34900;SDS011;21112;51.976;5.660;2023-04-24T05:47:46;8.98;;;4.82;;
34900;SDS011;21112;51.976;5.660;2023-04-24T05:50:13;9.48;;;4.32;;
34900;SDS011;21112;51.976;5.660;2023-04-24T05:52:40;9.57;;;4.80;;
34900;SDS011;21112;51.976;5.660;2023-04-24T05:55:06;11.57;;;4.28;;
34900;SDS011;21112;51.976;5.660;2023-04-24T05:57:37;10.70;;;4.40;;
34900;SDS011;21112;51.976;5.660;2023-04-24T06:00:04;10.10;;;4.68;;
34900;SDS011;21112;51.976;5.660;2023-04-24T06:02:30;8.90;;;4.13;;
34900;SDS011;21112;51.976;5.660;2023-04-24T06:04:57;8.52;;;4.15;;
34900;SDS011;21112;51.976;5.660;2023-04-24T06:07:24;9.98;;;4.32;;
34900;SDS011;21112;51.976;5.660;2023-04-24T06:09:51;10.30;;;3.72;;
34900;SDS011;21112;51.976;5.660;2023-04-24T06:12:17;8.57;;;4.00;;
34900;SDS011;21112;51.976;5.660;2023-04-24T06:14:45;7.45;;;4.15;;
34900;SDS011;21112;51.976;5.660;2023-04-24T06:17:12;9.52;;;4.32;;
34900;SDS011;21112;51.976;5.660;2023-04-24T06:19:38;10.85;;;4.30;;
34900;SDS011;21112;51.976;5.660;2023-04-24T06:22:05;7.45;;;4.03;;
34900;SDS011;21112;51.976;5.660;2023-04-24T06:24:34;11.38;;;4.60;;
34900;SDS011;21112;51.976;5.660;2023-04-24T06:27:01;7.30;;;3.95;;
34900;SDS011;21112;51.976;5.660;2023-04-24T06:29:27;8.02;;;4.07;;
34900;SDS011;21112;51.976;5.660;2023-04-24T06:31:58;9.02;;;3.95;;
34900;SDS011;21112;51.976;5.660;2023-04-24T06:34:25;7.43;;;3.70;;
34900;SDS011;21112;51.976;5.660;2023-04-24T06:36:53;6.45;;;3.17;;
34900;SDS011;21112;51.976;5.660;2023-04-24T06:39:31;6.45;;;3.22;;
34900;SDS011;21112;51.976;5.660;2023-04-24T06:41:58;7.07;;;3.80;;
34900;SDS011;21112;51.976;5.660;2023-04-24T06:44:25;7.38;;;3.45;;
34900;SDS011;21112;51.976;5.660;2023-04-24T06:46:52;7.07;;;3.13;;
34900;SDS011;21112;51.976;5.660;2023-04-24T06:49:21;7.05;;;3.35;;
34900;SDS011;21112;51.976;5.660;2023-04-24T06:51:48;7.10;;;2.97;;
34900;SDS011;21112;51.976;5.660;2023-04-24T06:54:16;4.90;;;2.42;;
34900;SDS011;21112;51.976;5.660;2023-04-24T06:56:42;7.38;;;3.38;;
34900;SDS011;21112;51.976;5.660;2023-04-24T06:59:10;6.27;;;2.73;;
34900;SDS011;21112;51.976;5.660;2023-04-24T07:01:37;6.00;;;2.78;;
34900;SDS011;21112;51.976;5.660;2023-04-24T07:04:06;4.93;;;2.53;;
34900;SDS011;21112;51.976;5.660;2023-04-24T07:06:34;6.18;;;2.40;;
34900;SDS011;21112;51.976;5.660;2023-04-24T07:09:03;4.90;;;1.90;;
34900;SDS011;21112;51.976;5.660;2023-04-24T07:11:29;5.18;;;1.95;;
34900;SDS011;21112;51.976;5.660;2023-04-24T07:13:58;3.50;;;1.70;;
34900;SDS011;21112;51.976;5.660;2023-04-24T07:16:24;4.13;;;1.90;;
34900;SDS011;21112;51.976;5.660;2023-04-24T07:18:52;4.45;;;1.95;;
34900;SDS011;21112;51.976;5.660;2023-04-24T07:21:18;4.03;;;1.75;;
34900;SDS011;21112;51.976;5.660;2023-04-24T07:23:49;4.05;;;1.60;;
34900;SDS011;21112;51.976;5.660;2023-04-24T07:26:18;3.80;;;1.58;;
34900;SDS011;21112;51.976;5.660;2023-04-24T07:28:45;6.00;;;1.85;;
34900;SDS011;21112;51.976;5.660;2023-04-24T07:31:12;3.97;;;1.65;;
34900;SDS011;21112;51.976;5.660;2023-04-24T07:33:41;3.55;;;1.73;;
34900;SDS011;21112;51.976;5.660;2023-04-24T07:36:08;6.75;;;2.10;;
34900;SDS011;21112;51.976;5.660;2023-04-24T07:38:40;3.60;;;1.80;;
34900;SDS011;21112;51.976;5.660;2023-04-24T07:41:08;4.63;;;2.15;;
34900;SDS011;21112;51.976;5.660;2023-04-24T07:43:36;4.40;;;2.03;;
34900;SDS011;21112;51.976;5.660;2023-04-24T07:46:05;5.20;;;2.15;;
34900;SDS011;21112;51.976;5.660;2023-04-24T07:48:32;6.90;;;2.30;;
34900;SDS011;21112;51.976;5.660;2023-04-24T07:50:58;5.35;;;2.40;;
34900;SDS011;21112;51.976;5.660;2023-04-24T07:53:25;6.65;;;2.58;;
34900;SDS011;21112;51.976;5.660;2023-04-24T07:55:51;5.40;;;2.38;;
34900;SDS011;21112;51.976;5.660;2023-04-24T07:58:20;6.13;;;2.47;;
34900;SDS011;21112;51.976;5.660;2023-04-24T08:00:47;7.13;;;2.75;;
34900;SDS011;21112;51.976;5.660;2023-04-24T08:03:15;5.85;;;2.63;;
34900;SDS011;21112;51.976;5.660;2023-04-24T08:05:47;6.25;;;2.45;;
34900;SDS011;21112;51.976;5.660;2023-04-24T08:08:15;6.57;;;2.53;;
34900;SDS011;21112;51.976;5.660;2023-04-24T08:10:42;6.38;;;3.10;;
34900;SDS011;21112;51.976;5.660;2023-04-24T08:13:09;10.15;;;3.40;;
34900;SDS011;21112;51.976;5.660;2023-04-24T08:15:38;9.88;;;2.88;;
34900;SDS011;21112;51.976;5.660;2023-04-24T08:18:04;6.82;;;2.78;;
34900;SDS011;21112;51.976;5.660;2023-04-24T08:20:33;7.35;;;2.70;;
34900;SDS011;21112;51.976;5.660;2023-04-24T08:23:02;6.68;;;3.10;;
34900;SDS011;21112;51.976;5.660;2023-04-24T08:25:29;8.23;;;2.92;;
34900;SDS011;21112;51.976;5.660;2023-04-24T08:28:00;6.30;;;3.22;;
34900;SDS011;21112;51.976;5.660;2023-04-24T08:30:26;7.22;;;2.97;;
34900;SDS011;21112;51.976;5.660;2023-04-24T08:32:59;8.52;;;3.45;;
34900;SDS011;21112;51.976;5.660;2023-04-24T08:35:27;10.23;;;3.50;;
34900;SDS011;21112;51.976;5.660;2023-04-24T08:37:54;8.88;;;3.20;;
34900;SDS011;21112;51.976;5.660;2023-04-24T08:40:22;7.82;;;3.47;;
34900;SDS011;21112;51.976;5.660;2023-04-24T08:42:49;8.52;;;3.13;;
34900;SDS011;21112;51.976;5.660;2023-04-24T08:45:16;7.57;;;3.03;;
34900;SDS011;21112;51.976;5.660;2023-04-24T08:47:44;7.32;;;3.42;;
34900;SDS011;21112;51.976;5.660;2023-04-24T08:50:12;5.40;;;2.88;;
34900;SDS011;21112;51.976;5.660;2023-04-24T08:52:41;7.57;;;2.95;;
34900;SDS011;21112;51.976;5.660;2023-04-24T08:55:08;5.13;;;2.70;;
34900;SDS011;21112;51.976;5.660;2023-04-24T08:57:35;12.05;;;3.08;;
34900;SDS011;21112;51.976;5.660;2023-04-24T09:00:05;6.85;;;2.85;;
34900;SDS011;21112;51.976;5.660;2023-04-24T09:02:34;5.57;;;2.72;;
34900;SDS011;21112;51.976;5.660;2023-04-24T09:07:33;5.85;;;2.25;;
34900;SDS011;21112;51.976;5.660;2023-04-24T09:10:01;9.23;;;2.45;;
34900;SDS011;21112;51.976;5.660;2023-04-24T09:12:28;8.60;;;2.70;;
34900;SDS011;21112;51.976;5.660;2023-04-24T09:14:57;8.57;;;2.42;;
34900;SDS011;21112;51.976;5.660;2023-04-24T09:17:24;7.22;;;1.80;;
34900;SDS011;21112;51.976;5.660;2023-04-24T09:19:53;8.05;;;2.40;;
34900;SDS011;21112;51.976;5.660;2023-04-24T09:22:20;6.68;;;2.03;;
34900;SDS011;21112;51.976;5.660;2023-04-24T09:24:47;9.27;;;2.58;;
34900;SDS011;21112;51.976;5.660;2023-04-24T09:27:17;8.77;;;2.25;;
34900;SDS011;21112;51.976;5.660;2023-04-24T09:32:17;4.88;;;1.48;;
34900;SDS011;21112;51.976;5.660;2023-04-24T09:34:49;9.18;;;2.20;;
34900;SDS011;21112;51.976;5.660;2023-04-24T09:37:27;8.18;;;2.17;;
34900;SDS011;21112;51.976;5.660;2023-04-24T09:40:10;10.02;;;2.30;;
34900;SDS011;21112;51.976;5.660;2023-04-24T09:42:37;5.47;;;1.80;;
34900;SDS011;21112;51.976;5.660;2023-04-24T09:45:04;7.65;;;1.58;;
34900;SDS011;21112;51.976;5.660;2023-04-24T09:47:35;5.00;;;1.70;;
34900;SDS011;21112;51.976;5.660;2023-04-24T09:50:08;6.90;;;1.95;;
34900;SDS011;21112;51.976;5.660;2023-04-24T09:52:41;8.30;;;2.15;;
34900;SDS011;21112;51.976;5.660;2023-04-24T09:55:18;5.43;;;1.77;;
34900;SDS011;21112;51.976;5.660;2023-04-24T09:57:49;4.30;;;1.58;;
34900;SDS011;21112;51.976;5.660;2023-04-24T10:00:21;4.22;;;1.40;;
34900;SDS011;21112;51.976;5.660;2023-04-24T10:02:58;5.97;;;1.85;;
34900;SDS011;21112;51.976;5.660;2023-04-24T10:05:27;11.75;;;1.88;;
34900;SDS011;21112;51.976;5.660;2023-04-24T10:07:58;4.75;;;1.50;;
34900;SDS011;21112;51.976;5.660;2023-04-24T10:13:11;7.97;;;1.88;;
34900;SDS011;21112;51.976;5.660;2023-04-24T10:15:40;8.23;;;1.58;;
34900;SDS011;21112;51.976;5.660;2023-04-24T10:18:11;6.95;;;1.80;;
34900;SDS011;21112;51.976;5.660;2023-04-24T10:20:38;9.98;;;1.73;;
34900;SDS011;21112;51.976;5.660;2023-04-24T10:23:07;5.82;;;1.50;;
34900;SDS011;21112;51.976;5.660;2023-04-24T10:25:34;5.30;;;1.60;;
34900;SDS011;21112;51.976;5.660;2023-04-24T10:28:01;3.22;;;1.42;;
34900;SDS011;21112;51.976;5.660;2023-04-24T10:30:38;5.50;;;1.80;;
34900;SDS011;21112;51.976;5.660;2023-04-24T10:33:10;8.15;;;1.48;;
34900;SDS011;21112;51.976;5.660;2023-04-24T10:35:41;5.80;;;1.70;;
34900;SDS011;21112;51.976;5.660;2023-04-24T10:38:12;4.40;;;1.58;;
34900;SDS011;21112;51.976;5.660;2023-04-24T10:40:39;7.70;;;1.70;;
34900;SDS011;21112;51.976;5.660;2023-04-24T10:43:06;7.53;;;1.25;;
34900;SDS011;21112;51.976;5.660;2023-04-24T10:45:37;5.68;;;1.42;;
34900;SDS011;21112;51.976;5.660;2023-04-24T10:48:08;4.45;;;1.45;;
34900;SDS011;21112;51.976;5.660;2023-04-24T10:50:42;4.47;;;1.23;;
34900;SDS011;21112;51.976;5.660;2023-04-24T10:53:12;4.70;;;1.38;;
34900;SDS011;21112;51.976;5.660;2023-04-24T10:55:40;4.55;;;1.02;;
34900;SDS011;21112;51.976;5.660;2023-04-24T10:58:09;3.75;;;1.38;;
34900;SDS011;21112;51.976;5.660;2023-04-24T11:00:38;3.65;;;1.10;;
34900;SDS011;21112;51.976;5.660;2023-04-24T11:03:05;2.38;;;1.17;;
34900;SDS011;21112;51.976;5.660;2023-04-24T11:05:48;2.22;;;1.00;;
34900;SDS011;21112;51.976;5.660;2023-04-24T11:08:16;4.88;;;1.33;;
34900;SDS011;21112;51.976;5.660;2023-04-24T11:10:54;4.15;;;1.10;;
34900;SDS011;21112;51.976;5.660;2023-04-24T11:13:23;5.75;;;1.20;;
34900;SDS011;21112;51.976;5.660;2023-04-24T11:18:38;4.40;;;0.98;;
34900;SDS011;21112;51.976;5.660;2023-04-24T11:21:10;6.35;;;1.10;;
34900;SDS011;21112;51.976;5.660;2023-04-24T11:23:40;1.88;;;0.80;;
34900;SDS011;21112;51.976;5.660;2023-04-24T11:26:10;5.63;;;0.90;;
34900;SDS011;21112;51.976;5.660;2023-04-24T11:28:37;3.90;;;1.30;;
34900;SDS011;21112;51.976;5.660;2023-04-24T11:33:51;3.75;;;1.08;;
34900;SDS011;21112;51.976;5.660;2023-04-24T11:36:20;5.50;;;1.13;;
34900;SDS011;21112;51.976;5.660;2023-04-24T11:38:46;2.22;;;0.85;;
34900;SDS011;21112;51.976;5.660;2023-04-24T11:41:13;4.40;;;0.70;;
34900;SDS011;21112;51.976;5.660;2023-04-24T11:43:40;3.13;;;0.70;;
34900;SDS011;21112;51.976;5.660;2023-04-24T11:46:07;3.70;;;0.85;;
34900;SDS011;21112;51.976;5.660;2023-04-24T11:48:35;1.08;;;0.60;;
34900;SDS011;21112;51.976;5.660;2023-04-24T11:51:06;1.67;;;0.90;;
34900;SDS011;21112;51.976;5.660;2023-04-24T11:53:33;2.63;;;0.85;;
34900;SDS011;21112;51.976;5.660;2023-04-24T11:56:02;2.25;;;0.68;;
34900;SDS011;21112;51.976;5.660;2023-04-24T11:58:34;1.73;;;0.82;;
34900;SDS011;21112;51.976;5.660;2023-04-24T12:01:07;1.75;;;0.60;;
34900;SDS011;21112;51.976;5.660;2023-04-24T12:03:36;3.03;;;0.60;;
34900;SDS011;21112;51.976;5.660;2023-04-24T12:06:08;2.58;;;0.70;;
34900;SDS011;21112;51.976;5.660;2023-04-24T12:08:35;2.50;;;0.70;;
34900;SDS011;21112;51.976;5.660;2023-04-24T12:11:01;2.83;;;0.68;;
34900;SDS011;21112;51.976;5.660;2023-04-24T12:13:28;2.60;;;0.60;;
34900;SDS011;21112;51.976;5.660;2023-04-24T12:15:56;1.02;;;0.60;;
34900;SDS011;21112;51.976;5.660;2023-04-24T12:18:30;2.75;;;0.60;;
34900;SDS011;21112;51.976;5.660;2023-04-24T12:21:17;5.28;;;0.80;;
34900;SDS011;21112;51.976;5.660;2023-04-24T12:23:53;3.75;;;0.80;;
34900;SDS011;21112;51.976;5.660;2023-04-24T12:28:48;1.52;;;0.60;;
34900;SDS011;21112;51.976;5.660;2023-04-24T12:31:15;2.78;;;0.80;;
34900;SDS011;21112;51.976;5.660;2023-04-24T12:33:49;2.58;;;0.70;;
34900;SDS011;21112;51.976;5.660;2023-04-24T12:36:17;1.92;;;0.70;;
34900;SDS011;21112;51.976;5.660;2023-04-24T12:38:43;2.07;;;1.23;;
34900;SDS011;21112;51.976;5.660;2023-04-24T12:41:11;1.85;;;0.57;;
34900;SDS011;21112;51.976;5.660;2023-04-24T12:43:51;1.35;;;0.47;;
34900;SDS011;21112;51.976;5.660;2023-04-24T12:46:18;1.02;;;0.60;;
34900;SDS011;21112;51.976;5.660;2023-04-24T12:48:46;2.95;;;0.65;;
34900;SDS011;21112;51.976;5.660;2023-04-24T12:51:12;1.73;;;0.63;;
34900;SDS011;21112;51.976;5.660;2023-04-24T12:53:40;4.82;;;0.70;;
34900;SDS011;21112;51.976;5.660;2023-04-24T12:56:07;0.75;;;0.52;;
34900;SDS011;21112;51.976;5.660;2023-04-24T12:58:39;4.35;;;0.80;;
34900;SDS011;21112;51.976;5.660;2023-04-24T13:01:05;3.20;;;0.57;;
34900;SDS011;21112;51.976;5.660;2023-04-24T13:03:38;3.13;;;0.60;;
34900;SDS011;21112;51.976;5.660;2023-04-24T13:06:05;1.77;;;0.57;;
34900;SDS011;21112;51.976;5.660;2023-04-24T13:08:32;2.50;;;0.70;;
34900;SDS011;21112;51.976;5.660;2023-04-24T13:11:14;3.33;;;0.70;;
34900;SDS011;21112;51.976;5.660;2023-04-24T13:13:50;2.55;;;0.68;;
34900;SDS011;21112;51.976;5.660;2023-04-24T13:16:19;1.67;;;0.80;;
34900;SDS011;21112;51.976;5.660;2023-04-24T13:18:57;3.78;;;0.80;;
34900;SDS011;21112;51.976;5.660;2023-04-24T13:21:23;4.57;;;0.80;;
34900;SDS011;21112;51.976;5.660;2023-04-24T13:23:53;3.70;;;0.90;;
34900;SDS011;21112;51.976;5.660;2023-04-24T13:26:21;4.32;;;0.88;;
34900;SDS011;21112;51.976;5.660;2023-04-24T13:29:03;3.30;;;1.00;;
34900;SDS011;21112;51.976;5.660;2023-04-24T13:31:30;3.78;;;1.00;;
34900;SDS011;21112;51.976;5.660;2023-04-24T13:33:57;4.10;;;1.00;;
34900;SDS011;21112;51.976;5.660;2023-04-24T13:36:23;6.65;;;1.20;;
34900;SDS011;21112;51.976;5.660;2023-04-24T13:38:52;4.25;;;0.90;;
34900;SDS011;21112;51.976;5.660;2023-04-24T13:41:23;3.58;;;1.08;;
34900;SDS011;21112;51.976;5.660;2023-04-24T13:43:52;4.55;;;1.63;;
34900;SDS011;21112;51.976;5.660;2023-04-24T13:46:19;3.03;;;0.90;;
34900;SDS011;21112;51.976;5.660;2023-04-24T13:48:46;5.95;;;1.13;;
34900;SDS011;21112;51.976;5.660;2023-04-24T13:51:12;6.07;;;1.02;;
34900;SDS011;21112;51.976;5.660;2023-04-24T13:53:39;5.63;;;1.30;;
34900;SDS011;21112;51.976;5.660;2023-04-24T13:56:11;6.43;;;1.00;;
34900;SDS011;21112;51.976;5.660;2023-04-24T13:58:40;5.05;;;1.20;;
34900;SDS011;21112;51.976;5.660;2023-04-24T14:01:09;8.15;;;1.30;;
34900;SDS011;21112;51.976;5.660;2023-04-24T14:03:38;7.88;;;1.58;;
34900;SDS011;21112;51.976;5.660;2023-04-24T14:06:04;4.78;;;1.23;;
34900;SDS011;21112;51.976;5.660;2023-04-24T14:08:34;5.78;;;1.27;;
34900;SDS011;21112;51.976;5.660;2023-04-24T14:11:01;6.38;;;1.20;;
34900;SDS011;21112;51.976;5.660;2023-04-24T14:13:27;5.75;;;1.70;;
34900;SDS011;21112;51.976;5.660;2023-04-24T14:15:58;8.25;;;1.38;;
34900;SDS011;21112;51.976;5.660;2023-04-24T14:18:28;2.85;;;1.00;;
34900;SDS011;21112;51.976;5.660;2023-04-24T14:21:02;7.90;;;1.33;;
34900;SDS011;21112;51.976;5.660;2023-04-24T14:23:28;5.13;;;1.52;;
34900;SDS011;21112;51.976;5.660;2023-04-24T14:25:55;9.07;;;1.40;;
34900;SDS011;21112;51.976;5.660;2023-04-24T14:28:27;4.80;;;1.25;;
34900;SDS011;21112;51.976;5.660;2023-04-24T14:30:55;9.63;;;1.42;;
34900;SDS011;21112;51.976;5.660;2023-04-24T14:33:25;9.07;;;1.35;;
34900;SDS011;21112;51.976;5.660;2023-04-24T14:35:52;4.57;;;1.13;;
34900;SDS011;21112;51.976;5.660;2023-04-24T14:38:18;3.88;;;1.33;;
34900;SDS011;21112;51.976;5.660;2023-04-24T14:40:45;6.93;;;1.60;;
34900;SDS011;21112;51.976;5.660;2023-04-24T14:43:11;3.10;;;1.30;;
34900;SDS011;21112;51.976;5.660;2023-04-24T14:45:38;7.20;;;1.40;;
34900;SDS011;21112;51.976;5.660;2023-04-24T14:48:07;4.05;;;1.30;;
34900;SDS011;21112;51.976;5.660;2023-04-24T14:50:40;6.80;;;1.48;;
34900;SDS011;21112;51.976;5.660;2023-04-24T14:53:09;4.53;;;1.30;;
34900;SDS011;21112;51.976;5.660;2023-04-24T14:55:37;6.32;;;1.40;;
34900;SDS011;21112;51.976;5.660;2023-04-24T15:00:33;6.28;;;1.40;;
34900;SDS011;21112;51.976;5.660;2023-04-24T15:03:02;6.03;;;1.40;;
34900;SDS011;21112;51.976;5.660;2023-04-24T15:05:33;5.32;;;1.15;;
34900;SDS011;21112;51.976;5.660;2023-04-24T15:08:05;5.82;;;1.77;;
34900;SDS011;21112;51.976;5.660;2023-04-24T15:10:32;8.68;;;1.63;;
34900;SDS011;21112;51.976;5.660;2023-04-24T15:13:01;4.85;;;1.38;;
34900;SDS011;21112;51.976;5.660;2023-04-24T15:15:27;4.43;;;1.38;;